Overview Statistics Trail Chart Weather Telemetry Raw packets
 

This is the latest recevied weather packets stored in our database for station/object PE1RXF-13. If no packets are shown the sender has not sent any weather packets the latest 10 day(s).

<< 1 2 3 4 5 6 >>
Time Temp. Humidity Pressure Rain* Wind** Luminosity Snow
1788649077 10° C 99% 1024.4 hPa 0 mm - 0 W/m² -
1788647968 10° C 99% 1024.3 hPa 0 mm - 0 W/m² -
1788646865 10° C 99% 1024.1 hPa 0 mm - 0 W/m² -
1788645762 10.56° C 99% 1024 hPa 0 mm - 0 W/m² -
1788644659 11.11° C 99% 1023.8 hPa 0 mm - 0 W/m² -
1788643555 11.11° C 99% 1023.8 hPa 0 mm - 0 W/m² -
1788642453 11.67° C 99% 1023.6 hPa 0 mm - 0 W/m² -
1788641350 12.22° C 99% 1023.5 hPa 0 mm - 0 W/m² -
1788640247 12.22° C 99% 1023.4 hPa 0 mm - 0 W/m² -
1788639144 12.22° C 99% 1023.3 hPa 0 mm - 0 W/m² -
1788638041 12.22° C 99% 1023.2 hPa 0 mm - 0 W/m² -
1788636938 12.78° C 99% 1023 hPa 0 mm - 0 W/m² -
1788635834 12.78° C 99% 1022.9 hPa 0 mm - 0 W/m² -
1788634732 13.33° C 99% 1022.6 hPa 0 mm - 0 W/m² -
1788633629 13.89° C 99% 1022.4 hPa 0 mm - 0 W/m² -
1788632526 15° C 99% 1022.2 hPa 0 mm - 0 W/m² -
1788631448 15° C 99% 1022 hPa 0 mm - 1 W/m² -
1788630320 15.56° C 96% 1021.9 hPa 0 mm - 4 W/m² -
1788629217 16.11° C 90% 1021.6 hPa 0 mm - 7 W/m² -
1788628113 16.67° C 89% 1021.4 hPa 0 mm - 12 W/m² -
1788627011 16.67° C 84% 1021.2 hPa 0 mm - 12 W/m² -
1788625908 17.78° C 84% 1020.9 hPa 0 mm - 18 W/m² -
1788624805 18.89° C 80% 1020.6 hPa 0 mm - 47 W/m² -
1788623701 18.89° C 78% 1020.4 hPa 0 mm - 61 W/m² -
1788622599 20° C 66% 1020.2 hPa 0 mm - 94 W/m² -

* Rain latest hour (hover to see other rain measurements)
** Current wind speed in m/s (hover to see current wind gust speed)